createdAt,value
2018-08-25T00:00:00.583Z,86.28
2018-08-25T00:02:29.414Z,87.37
2018-08-25T00:04:58.163Z,87.98
2018-08-25T00:07:27.152Z,87.77
2018-08-25T00:09:56.120Z,85.50
2018-08-25T00:12:24.919Z,84.52
2018-08-25T00:14:54.003Z,85.87
2018-08-25T00:17:22.768Z,85.68
2018-08-25T00:19:51.570Z,85.62
2018-08-25T00:22:20.722Z,86.70
2018-08-25T00:24:49.477Z,85.70
2018-08-25T00:27:18.240Z,86.57
2018-08-25T00:29:47.146Z,86.27
2018-08-25T00:32:15.951Z,85.42
2018-08-25T00:34:44.736Z,85.33
2018-08-25T00:37:13.794Z,85.09
2018-08-25T00:39:42.566Z,86.57
2018-08-25T00:42:11.430Z,86.38
2018-08-25T00:44:40.708Z,84.56
2018-08-25T00:47:09.595Z,87.02
2018-08-25T00:49:38.386Z,87.08
2018-08-25T00:52:07.497Z,86.34
2018-08-25T00:54:36.435Z,85.33
2018-08-25T00:57:05.312Z,85.30
2018-08-25T00:59:34.294Z,86.33
2018-08-25T01:02:03.083Z,86.51
2018-08-25T01:04:31.848Z,86.27
2018-08-25T01:07:00.944Z,86.03
2018-08-25T01:09:30.048Z,85.22
2018-08-25T01:11:58.887Z,84.97
2018-08-25T01:14:27.807Z,85.02
2018-08-25T01:16:56.607Z,82.48
2018-08-25T01:19:25.388Z,83.16
2018-08-25T01:21:54.363Z,83.54
2018-08-25T01:24:23.139Z,82.57
2018-08-25T01:26:51.882Z,81.47
2018-08-25T01:29:20.768Z,83.00
2018-08-25T01:31:49.529Z,81.93
2018-08-25T01:34:18.325Z,83.59
2018-08-25T01:36:47.391Z,82.71
2018-08-25T01:39:16.189Z,83.51
2018-08-25T01:41:45.112Z,81.96
2018-08-25T01:44:14.033Z,80.46
2018-08-25T01:46:42.863Z,80.08
2018-08-25T01:49:11.615Z,78.70
2018-08-25T01:51:40.997Z,79.20
2018-08-25T01:54:09.815Z,78.01
2018-08-25T01:56:38.615Z,78.22
2018-08-25T01:59:07.827Z,77.61
2018-08-25T02:01:36.579Z,77.51
2018-08-25T02:04:05.377Z,78.02
2018-08-25T02:06:34.655Z,77.73
2018-08-25T02:09:05.707Z,77.84
2018-08-25T02:11:34.555Z,77.88
2018-08-25T02:14:03.353Z,77.54
2018-08-25T02:16:32.122Z,77.34
2018-08-25T02:19:01.085Z,77.22
2018-08-25T02:21:30.261Z,77.69
2018-08-25T02:23:59.091Z,77.60
2018-08-25T02:26:28.307Z,77.21
2018-08-25T02:28:57.054Z,77.38
2018-08-25T02:31:25.826Z,78.04
2018-08-25T02:33:55.227Z,77.92
2018-08-25T02:36:24.057Z,77.68
2018-08-25T02:38:52.825Z,78.21
2018-08-25T02:41:21.998Z,78.42
2018-08-25T02:43:50.727Z,78.29
2018-08-25T02:46:20.152Z,78.58
2018-08-25T02:48:49.238Z,80.08
2018-08-25T02:51:18.067Z,80.92
2018-08-25T02:53:46.836Z,80.43
2018-08-25T02:56:15.975Z,79.55
2018-08-25T02:58:44.799Z,80.43
2018-08-25T03:01:13.693Z,81.82
2018-08-25T03:03:43.146Z,81.02
2018-08-25T03:06:13.175Z,80.65
2018-08-25T03:08:41.919Z,80.77
2018-08-25T03:11:10.807Z,79.67
2018-08-25T03:13:39.982Z,79.45
2018-08-25T03:16:08.751Z,81.12
2018-08-25T03:18:38.260Z,81.99
2018-08-25T03:21:07.536Z,80.80
2018-08-25T03:23:36.297Z,79.74
2018-08-25T03:26:05.551Z,79.29
2018-08-25T03:28:34.392Z,79.24
2018-08-25T03:31:03.163Z,80.58
2018-08-25T03:33:32.068Z,80.64
2018-08-25T03:36:00.841Z,80.62
2018-08-25T03:38:29.679Z,79.00
2018-08-25T03:40:58.798Z,79.72
2018-08-25T03:43:27.554Z,80.52
2018-08-25T03:45:56.304Z,79.93
2018-08-25T03:48:25.240Z,79.40
2018-08-25T03:50:54.074Z,80.29
2018-08-25T03:53:22.914Z,79.50
2018-08-25T03:55:51.915Z,78.46
2018-08-25T03:58:21.161Z,77.72
2018-08-25T04:00:49.930Z,79.13
2018-08-25T04:03:19.135Z,79.67
2018-08-25T04:05:47.906Z,79.58
2018-08-25T04:08:16.834Z,79.62
2018-08-25T04:10:46.011Z,81.00
2018-08-25T04:13:14.782Z,82.28
2018-08-25T04:15:43.616Z,82.79
2018-08-25T04:18:12.576Z,82.70
2018-08-25T04:20:41.323Z,82.35
2018-08-25T04:23:10.102Z,84.18
2018-08-25T04:25:39.019Z,83.97
2018-08-25T04:28:09.919Z,81.72
2018-08-25T04:30:38.687Z,81.22
2018-08-25T04:33:07.742Z,83.03
2018-08-25T04:35:36.553Z,82.28
2018-08-25T04:38:05.445Z,81.94
2018-08-25T04:40:34.472Z,81.92
2018-08-25T04:43:03.258Z,80.84
2018-08-25T04:45:32.071Z,80.20
2018-08-25T04:48:01.157Z,80.71
2018-08-25T04:50:29.935Z,79.62
2018-08-25T04:52:58.762Z,80.32
2018-08-25T04:55:27.656Z,80.11
2018-08-25T04:57:56.440Z,80.95
2018-08-25T05:00:25.247Z,82.79
2018-08-25T05:02:54.140Z,81.98
2018-08-25T05:05:22.959Z,80.93
2018-08-25T05:07:51.800Z,82.20
2018-08-25T05:10:20.961Z,82.75
2018-08-25T05:12:49.760Z,81.63
2018-08-25T05:15:18.538Z,80.70
2018-08-25T05:17:47.531Z,82.39
2018-08-25T05:20:16.326Z,81.54
2018-08-25T05:22:45.125Z,82.40
2018-08-25T05:25:14.207Z,82.54
2018-08-25T05:27:42.959Z,82.33
2018-08-25T05:30:11.891Z,83.77
2018-08-25T05:32:41.192Z,83.43
2018-08-25T05:35:09.985Z,84.92
2018-08-25T05:37:38.774Z,85.18
2018-08-25T05:40:07.983Z,84.83
2018-08-25T05:42:36.788Z,84.58
2018-08-25T05:45:11.999Z,85.53
2018-08-25T05:47:40.755Z,82.80
2018-08-25T05:50:09.624Z,83.93
2018-08-25T05:52:39.075Z,86.46
2018-08-25T05:55:07.883Z,86.11
2018-08-25T05:57:36.700Z,83.68
2018-08-25T06:00:06.167Z,83.28
2018-08-25T06:02:34.944Z,83.85
2018-08-25T06:05:04.011Z,85.07
2018-08-25T06:07:32.759Z,89.21
2018-08-25T06:10:01.658Z,88.69
2018-08-25T06:12:30.522Z,87.54
2018-08-25T06:14:59.402Z,88.70
2018-08-25T06:17:28.221Z,87.84
2018-08-25T06:19:57.060Z,87.83
2018-08-25T06:22:25.851Z,87.53
2018-08-25T06:24:54.656Z,87.48
2018-08-25T06:27:23.391Z,86.24
2018-08-25T06:29:52.332Z,86.04
2018-08-25T06:32:21.082Z,87.07
2018-08-25T06:34:49.873Z,87.44
2018-08-25T06:37:18.607Z,88.81
2018-08-25T06:39:47.378Z,87.83
2018-08-25T06:42:16.585Z,85.71
2018-08-25T06:44:45.390Z,87.87
2018-08-25T06:47:14.157Z,88.21
2018-08-25T06:49:42.892Z,87.37
2018-08-25T06:52:11.711Z,87.52
2018-08-25T06:54:40.566Z,86.56
2018-08-25T06:57:09.383Z,86.21
2018-08-25T06:59:38.305Z,86.28
2018-08-25T07:02:07.162Z,85.93
2018-08-25T07:04:35.939Z,86.86
2018-08-25T07:07:05.253Z,86.03
2018-08-25T07:09:33.992Z,85.69
2018-08-25T07:12:02.959Z,86.23
2018-08-25T07:14:31.756Z,86.49
2018-08-25T07:17:00.598Z,89.29
2018-08-25T07:19:29.439Z,86.74
2018-08-25T07:21:58.228Z,86.08
2018-08-25T07:24:26.962Z,85.76
2018-08-25T07:26:55.768Z,89.98
2018-08-25T07:29:24.510Z,87.74
2018-08-25T07:31:53.375Z,87.09
2018-08-25T07:34:22.110Z,88.27
2018-08-25T07:36:50.903Z,87.37
2018-08-25T07:39:19.959Z,86.84
2018-08-25T07:41:48.758Z,86.70
2018-08-25T07:44:17.553Z,85.49
2018-08-25T07:46:46.341Z,86.59
2018-08-25T07:49:15.147Z,85.42
2018-08-25T07:51:43.958Z,86.76
2018-08-25T07:54:12.747Z,86.18
2018-08-25T07:56:41.675Z,85.69
2018-08-25T07:59:10.545Z,85.73
2018-08-25T08:01:39.278Z,85.71
2018-08-25T08:04:08.076Z,85.76
2018-08-25T08:06:36.871Z,86.32
2018-08-25T08:09:09.032Z,87.68
2018-08-25T08:11:37.817Z,88.16
2018-08-25T08:14:06.941Z,88.98
2018-08-25T08:16:35.691Z,88.66
2018-08-25T08:19:04.674Z,89.10
2018-08-25T08:21:33.495Z,87.43
2018-08-25T08:24:02.301Z,87.48
2018-08-25T08:26:31.064Z,88.21
2018-08-25T08:28:59.840Z,88.33
2018-08-25T08:31:28.637Z,88.48
2018-08-25T08:33:57.575Z,93.05
2018-08-25T08:36:26.644Z,91.79
2018-08-25T08:38:55.608Z,90.91
2018-08-25T08:41:24.392Z,92.59
2018-08-25T08:43:53.169Z,93.82
2018-08-25T08:46:27.671Z,94.32
2018-08-25T08:48:56.445Z,94.78
2018-08-25T08:51:25.299Z,95.75
2018-08-25T08:53:54.069Z,96.21
2018-08-25T08:56:22.947Z,96.83
2018-08-25T08:58:51.755Z,96.50
2018-08-25T09:01:20.644Z,96.57
2018-08-25T09:03:49.436Z,96.33
2018-08-25T09:06:18.323Z,96.08
2018-08-25T09:08:47.344Z,95.37
2018-08-25T09:11:16.193Z,95.23
2018-08-25T09:13:45.028Z,95.03
2018-08-25T09:16:13.866Z,95.16
2018-08-25T09:18:42.908Z,94.10
2018-08-25T09:21:11.776Z,93.48
2018-08-25T09:23:40.518Z,92.38
2018-08-25T09:26:09.316Z,90.95
2018-08-25T09:28:38.095Z,90.97
2018-08-25T09:31:06.936Z,91.50
2018-08-25T09:33:35.744Z,91.30
2018-08-25T09:36:04.599Z,90.11
2018-08-25T09:38:33.442Z,90.59
2018-08-25T09:41:02.547Z,91.06
2018-08-25T09:43:31.290Z,90.81
2018-08-25T09:46:00.899Z,90.61
2018-08-25T09:48:30.078Z,90.83
2018-08-25T09:50:58.864Z,91.36
2018-08-25T09:53:27.680Z,91.00
2018-08-25T09:55:56.561Z,90.33
2018-08-25T09:58:25.357Z,90.88
2018-08-25T10:00:59.971Z,89.94
2018-08-25T10:03:28.784Z,90.33
2018-08-25T10:05:57.576Z,89.59
2018-08-25T10:08:26.652Z,89.31
2018-08-25T10:10:55.422Z,89.44
2018-08-25T10:13:24.368Z,89.36
2018-08-25T10:15:53.183Z,89.66
2018-08-25T10:18:21.989Z,88.51
2018-08-25T10:20:50.903Z,87.95
2018-08-25T10:23:20.033Z,87.80
2018-08-25T10:25:48.768Z,87.88
2018-08-25T10:28:17.599Z,88.79
2018-08-25T10:30:46.351Z,87.62
2018-08-25T10:33:15.242Z,85.84
2018-08-25T10:35:44.041Z,84.62
2018-08-25T10:38:12.891Z,85.89
2018-08-25T10:40:41.904Z,85.16
2018-08-25T10:43:10.653Z,84.63
2018-08-25T10:45:39.509Z,84.88
2018-08-25T10:48:08.344Z,86.16
2018-08-25T10:50:37.164Z,86.66
2018-08-25T10:53:05.986Z,86.76
2018-08-25T10:55:34.808Z,86.27
2018-08-25T10:58:03.660Z,85.41
2018-08-25T11:00:32.476Z,85.59
2018-08-25T11:03:01.827Z,84.07
2018-08-25T11:05:30.635Z,85.37
2018-08-25T11:07:59.400Z,85.13
2018-08-25T11:10:28.288Z,86.80
2018-08-25T11:12:57.072Z,87.85
2018-08-25T11:15:25.919Z,88.01
2018-08-25T11:17:54.674Z,87.65
2018-08-25T11:20:23.576Z,85.87
2018-08-25T11:22:52.415Z,85.37
2018-08-25T11:25:21.243Z,84.87
2018-08-25T11:27:49.995Z,84.55
2018-08-25T11:30:18.878Z,83.38
2018-08-25T11:32:47.719Z,84.86
2018-08-25T11:35:16.899Z,83.99
2018-08-25T11:37:45.733Z,83.14
2018-08-25T11:40:14.499Z,83.93
2018-08-25T11:42:43.324Z,83.24
2018-08-25T11:45:12.117Z,82.62
2018-08-25T11:47:40.994Z,81.82
2018-08-25T11:50:09.759Z,80.07
2018-08-25T11:52:38.554Z,81.66
2018-08-25T11:55:07.392Z,81.13
2018-08-25T11:57:36.175Z,81.30
2018-08-25T12:00:06.897Z,81.01
2018-08-25T12:02:35.707Z,81.50
2018-08-25T12:05:04.616Z,80.87
2018-08-25T12:07:33.408Z,81.19
2018-08-25T12:10:02.167Z,79.56
2018-08-25T12:12:32.955Z,78.71
2018-08-25T12:15:01.796Z,77.67
2018-08-25T12:17:31.004Z,76.56
2018-08-25T12:19:59.756Z,73.26
2018-08-25T12:22:28.556Z,74.96
2018-08-25T12:24:57.445Z,73.49
2018-08-25T12:27:28.499Z,74.27
2018-08-25T12:29:57.243Z,72.95
2018-08-25T12:32:26.011Z,72.54
2018-08-25T12:34:54.844Z,72.86
2018-08-25T12:37:23.648Z,72.46
2018-08-25T12:39:52.480Z,69.94
2018-08-25T12:42:21.249Z,70.89
2018-08-25T12:44:50.083Z,70.67
2018-08-25T12:47:23.549Z,70.38
2018-08-25T12:49:53.505Z,69.04
2018-08-25T12:52:22.556Z,68.53
2018-08-25T12:54:51.398Z,67.33
2018-08-25T12:57:20.860Z,67.71
2018-08-25T12:59:49.718Z,64.99
2018-08-25T13:02:18.539Z,65.70
2018-08-25T13:04:47.340Z,66.12
2018-08-25T13:07:16.150Z,65.40
2018-08-25T13:09:45.008Z,65.54
2018-08-25T13:12:14.112Z,63.68
2018-08-25T13:14:43.614Z,65.51
2018-08-25T13:17:12.383Z,64.51
2018-08-25T13:19:41.210Z,63.03
2018-08-25T13:22:10.093Z,64.80
2018-08-25T13:24:38.922Z,65.76
2018-08-25T13:27:07.798Z,66.82
2018-08-25T13:29:36.626Z,67.83
2018-08-25T13:32:05.456Z,68.60
2018-08-25T13:34:34.295Z,69.95
2018-08-25T13:37:03.173Z,70.14
2018-08-25T13:39:32.064Z,74.44
2018-08-25T13:42:00.950Z,75.47
2018-08-25T13:44:29.719Z,75.47
2018-08-25T13:46:58.543Z,76.13
2018-08-25T13:49:27.383Z,76.48
2018-08-25T13:51:56.271Z,76.20
2018-08-25T13:54:25.049Z,75.87
2018-08-25T13:56:53.860Z,78.14
2018-08-25T13:59:22.623Z,79.14
2018-08-25T14:01:51.426Z,79.63
2018-08-25T14:04:20.251Z,79.83
2018-08-25T14:06:49.479Z,80.29
2018-08-25T14:09:18.259Z,80.93
2018-08-25T14:11:47.094Z,81.56
2018-08-25T14:14:15.884Z,81.95
2018-08-25T14:16:44.743Z,81.71
2018-08-25T14:19:13.533Z,81.24
2018-08-25T14:21:42.378Z,80.82
2018-08-25T14:24:11.767Z,80.53
2018-08-25T14:26:40.621Z,80.41
2018-08-25T14:29:09.460Z,79.03
2018-08-25T14:31:38.217Z,80.13
2018-08-25T14:34:07.053Z,80.42
2018-08-25T14:36:35.927Z,80.76
2018-08-25T14:39:07.226Z,80.65
2018-08-25T14:41:36.193Z,80.34
2018-08-25T14:44:05.581Z,79.92
2018-08-25T14:46:35.592Z,78.38
2018-08-25T14:49:04.695Z,80.13
2018-08-25T14:51:33.443Z,79.87
2018-08-25T14:54:02.611Z,78.81
2018-08-25T14:56:31.350Z,78.56
2018-08-25T14:59:01.031Z,78.23
2018-08-25T15:01:29.792Z,77.19
2018-08-25T15:03:58.597Z,76.77
2018-08-25T15:06:27.427Z,76.00
2018-08-25T15:08:56.274Z,75.74
2018-08-25T15:11:25.184Z,73.49
2018-08-25T15:13:54.034Z,73.29
2018-08-25T15:16:22.785Z,72.87
2018-08-25T15:18:51.706Z,71.32
2018-08-25T15:21:20.487Z,72.26
2018-08-25T15:23:49.295Z,72.08
2018-08-25T15:26:18.135Z,70.19
2018-08-25T15:28:46.955Z,69.16
2018-08-25T15:31:15.790Z,69.50
2018-08-25T15:33:44.615Z,70.72
2018-08-25T15:36:13.418Z,70.42
2018-08-25T15:38:42.327Z,68.18
2018-08-25T15:41:11.212Z,66.50
2018-08-25T15:43:40.206Z,68.07
2018-08-25T15:46:09.045Z,68.67
2018-08-25T15:48:37.803Z,67.88
2018-08-25T15:51:06.714Z,66.66
2018-08-25T15:53:35.690Z,65.65
2018-08-25T15:56:04.691Z,65.54
2018-08-25T15:58:33.459Z,64.20
2018-08-25T16:01:02.275Z,62.76
2018-08-25T16:03:31.062Z,62.33
2018-08-25T16:05:59.925Z,61.97
2018-08-25T16:08:28.738Z,63.71
2018-08-25T16:10:57.538Z,63.16
2018-08-25T16:13:26.288Z,63.29
2018-08-25T16:15:55.121Z,62.54
2018-08-25T16:18:23.902Z,64.38
2018-08-25T16:20:52.788Z,64.69
2018-08-25T16:23:21.566Z,65.03
2018-08-25T16:25:50.368Z,66.02
2018-08-25T16:28:19.131Z,67.56
2018-08-25T16:30:47.945Z,69.50
2018-08-25T16:33:16.899Z,65.53
2018-08-25T16:35:45.695Z,63.59
2018-08-25T16:38:14.491Z,64.21
2018-08-25T16:40:43.261Z,63.63
2018-08-25T16:43:12.319Z,65.66
2018-08-25T16:45:41.174Z,68.76
2018-08-25T16:48:09.974Z,70.61
2018-08-25T16:50:39.330Z,71.43
2018-08-25T16:53:08.136Z,72.20
2018-08-25T16:55:37.392Z,73.45
2018-08-25T16:58:06.271Z,74.98
2018-08-25T17:00:35.042Z,74.97
2018-08-25T17:03:03.875Z,75.78
2018-08-25T17:05:32.633Z,75.40
2018-08-25T17:08:01.463Z,75.23
2018-08-25T17:10:30.383Z,77.00
2018-08-25T17:12:59.183Z,76.57
2018-08-25T17:15:28.509Z,78.10
2018-08-25T17:17:57.399Z,78.49
2018-08-25T17:20:26.860Z,78.17
2018-08-25T17:22:56.661Z,78.67
2018-08-25T17:25:25.459Z,78.59
2018-08-25T17:27:56.035Z,79.78
2018-08-25T17:30:24.796Z,80.90
2018-08-25T17:32:53.559Z,79.66
2018-08-25T17:35:22.455Z,79.82
2018-08-25T17:37:51.232Z,80.34
2018-08-25T17:40:20.035Z,80.58
2018-08-25T17:42:48.824Z,80.58
2018-08-25T17:45:17.659Z,80.77
2018-08-25T17:47:46.604Z,79.72
2018-08-25T17:50:15.472Z,79.63
2018-08-25T17:52:44.305Z,79.72
2018-08-25T17:55:13.248Z,80.98
2018-08-25T17:57:42.245Z,80.60
2018-08-25T18:00:13.028Z,80.79
2018-08-25T18:02:41.801Z,81.05
2018-08-25T18:05:11.221Z,79.81
2018-08-25T18:07:40.376Z,80.08
2018-08-25T18:10:09.664Z,79.97
2018-08-25T18:12:38.471Z,79.04
2018-08-25T18:15:07.788Z,79.87
2018-08-25T18:17:36.963Z,79.92
2018-08-25T18:20:05.951Z,79.68
2018-08-25T18:22:34.729Z,79.39
2018-08-25T18:25:04.235Z,80.43
2018-08-25T18:27:33.711Z,80.76
2018-08-25T18:30:02.467Z,81.25
2018-08-25T18:32:31.635Z,81.47
2018-08-25T18:35:00.851Z,81.58
2018-08-25T18:37:29.651Z,81.63
2018-08-25T18:39:58.579Z,81.55
2018-08-25T18:42:27.722Z,82.17
2018-08-25T18:44:56.611Z,82.44
2018-08-25T18:47:25.973Z,82.34
2018-08-25T18:49:55.439Z,83.03
2018-08-25T18:52:24.202Z,82.87
2018-08-25T18:54:54.900Z,83.38
2018-08-25T18:57:23.511Z,84.60
2018-08-25T18:59:52.281Z,84.38
2018-08-25T19:02:21.514Z,84.90
2018-08-25T19:04:50.312Z,84.42
2018-08-25T19:07:19.070Z,84.61
2018-08-25T19:09:48.388Z,84.41
2018-08-25T19:12:17.143Z,84.41
2018-08-25T19:14:46.263Z,85.14
2018-08-25T19:17:15.210Z,85.42
2018-08-25T19:19:43.978Z,85.56
2018-08-25T19:22:12.981Z,84.89
2018-08-25T19:24:42.061Z,85.15
2018-08-25T19:27:10.972Z,86.08
2018-08-25T19:29:39.902Z,85.95
2018-08-25T19:32:09.040Z,86.21
2018-08-25T19:34:37.781Z,85.38
2018-08-25T19:37:06.804Z,85.71
2018-08-25T19:39:35.832Z,85.45
2018-08-25T19:42:04.835Z,86.54
2018-08-25T19:44:33.961Z,87.77
2018-08-25T19:47:03.220Z,88.60
2018-08-25T19:49:32.241Z,88.89
2018-08-25T19:52:01.303Z,88.60
2018-08-25T19:54:30.340Z,88.95
2018-08-25T19:56:59.095Z,89.66
2018-08-25T19:59:27.857Z,88.58
2018-08-25T20:01:56.976Z,88.62
2018-08-25T20:04:25.783Z,88.34
2018-08-25T20:06:54.546Z,88.47
2018-08-25T20:09:23.665Z,88.28
2018-08-25T20:11:52.419Z,89.24
2018-08-25T20:14:21.551Z,88.29
2018-08-25T20:16:50.736Z,88.05
2018-08-25T20:19:19.503Z,88.98
2018-08-25T20:21:48.256Z,89.62
2018-08-25T20:24:17.279Z,88.98
2018-08-25T20:26:46.031Z,89.16
2018-08-25T20:29:14.952Z,88.76
2018-08-25T20:31:43.828Z,88.33
2018-08-25T20:34:17.546Z,89.49
2018-08-25T20:36:46.340Z,89.57
2018-08-25T20:39:15.216Z,89.50
2018-08-25T20:41:44.363Z,88.69
2018-08-25T20:44:13.148Z,88.75
2018-08-25T20:46:41.911Z,89.24
2018-08-25T20:49:11.151Z,89.18
2018-08-25T20:51:40.089Z,89.76
2018-08-25T20:54:08.844Z,89.34
2018-08-25T20:56:37.740Z,89.28
2018-08-25T20:59:06.522Z,89.22
2018-08-25T21:01:35.301Z,89.07
2018-08-25T21:04:04.495Z,89.76
2018-08-25T21:06:33.277Z,89.75
2018-08-25T21:09:02.043Z,89.39
2018-08-25T21:11:31.176Z,90.21
2018-08-25T21:13:59.972Z,89.84
2018-08-25T21:16:29.066Z,89.86
2018-08-25T21:18:58.235Z,89.54
2018-08-25T21:21:27.094Z,89.60
2018-08-25T21:23:55.931Z,89.46
2018-08-25T21:26:25.039Z,89.31
2018-08-25T21:28:53.852Z,88.88
2018-08-25T21:31:22.651Z,88.70
2018-08-25T21:33:51.718Z,88.84
2018-08-25T21:36:20.515Z,89.57
2018-08-25T21:38:49.295Z,89.06
2018-08-25T21:41:18.427Z,88.69
2018-08-25T21:43:47.164Z,89.22
2018-08-25T21:46:15.919Z,89.35
2018-08-25T21:48:45.072Z,89.30
2018-08-25T21:51:13.935Z,89.06
2018-08-25T21:53:42.715Z,88.92
2018-08-25T21:56:11.841Z,88.75
2018-08-25T21:58:40.677Z,89.73
2018-08-25T22:01:09.488Z,90.22
2018-08-25T22:03:38.376Z,89.62
2018-08-25T22:06:07.403Z,89.13
2018-08-25T22:08:36.179Z,89.08
2018-08-25T22:11:05.317Z,89.13
2018-08-25T22:13:34.105Z,88.58
2018-08-25T22:16:02.892Z,89.02
2018-08-25T22:18:31.862Z,89.61
2018-08-25T22:21:00.672Z,89.37
2018-08-25T22:23:29.427Z,89.26
2018-08-25T22:25:58.321Z,88.90
2018-08-25T22:28:27.119Z,88.55
2018-08-25T22:30:55.956Z,88.99
2018-08-25T22:33:24.928Z,88.88
2018-08-25T22:35:53.683Z,88.47
2018-08-25T22:38:22.476Z,88.40
2018-08-25T22:40:51.611Z,88.95
2018-08-25T22:43:20.433Z,88.41
2018-08-25T22:45:49.211Z,88.21
2018-08-25T22:48:18.350Z,88.27
2018-08-25T22:50:47.132Z,88.33
2018-08-25T22:53:15.894Z,87.99
2018-08-25T22:55:44.869Z,87.90
2018-08-25T22:58:13.648Z,88.23
2018-08-25T23:00:42.440Z,88.21
2018-08-25T23:03:11.635Z,87.93
2018-08-25T23:05:40.405Z,88.22
2018-08-25T23:08:09.216Z,88.30
2018-08-25T23:10:38.450Z,88.71
2018-08-25T23:13:07.218Z,88.76
2018-08-25T23:15:35.981Z,88.02
2018-08-25T23:18:05.436Z,87.96
2018-08-25T23:20:34.267Z,88.21
2018-08-25T23:23:03.467Z,88.63
2018-08-25T23:25:32.531Z,88.97
2018-08-25T23:28:01.284Z,89.29
2018-08-25T23:30:30.162Z,89.43
2018-08-25T23:32:59.228Z,89.34
2018-08-25T23:35:28.017Z,89.30
2018-08-25T23:37:56.812Z,89.07
2018-08-25T23:40:25.761Z,88.86
2018-08-25T23:42:54.537Z,88.47
2018-08-25T23:45:23.366Z,88.80
2018-08-25T23:47:52.525Z,88.74
2018-08-25T23:50:21.284Z,88.74
2018-08-25T23:52:50.361Z,88.86
2018-08-25T23:55:19.602Z,88.78
2018-08-25T23:57:48.399Z,88.70
